sensor_id;sensor_type;location;lat;lon;timestamp;temperature;humidity
33645;DHT22;19986;48.190;16.366;2023-12-29T00:01:36;8.40;99.90
33645;DHT22;19986;48.190;16.366;2023-12-29T00:04:02;8.40;99.90
33645;DHT22;19986;48.190;16.366;2023-12-29T00:06:38;8.40;99.90
33645;DHT22;19986;48.190;16.366;2023-12-29T00:09:07;8.40;99.90
33645;DHT22;19986;48.190;16.366;2023-12-29T00:11:33;8.50;99.90
33645;DHT22;19986;48.190;16.366;2023-12-29T00:13:59;8.50;99.90
33645;DHT22;19986;48.190;16.366;2023-12-29T00:16:27;8.50;99.90
33645;DHT22;19986;48.190;16.366;2023-12-29T00:19:00;8.50;99.90
33645;DHT22;19986;48.190;16.366;2023-12-29T00:21:26;8.60;99.90
33645;DHT22;19986;48.190;16.366;2023-12-29T00:23:52;8.60;99.90
33645;DHT22;19986;48.190;16.366;2023-12-29T00:26:19;8.60;99.90
33645;DHT22;19986;48.190;16.366;2023-12-29T00:28:45;8.70;99.90
33645;DHT22;19986;48.190;16.366;2023-12-29T00:31:15;8.60;99.90
33645;DHT22;19986;48.190;16.366;2023-12-29T00:33:44;8.70;99.90
33645;DHT22;19986;48.190;16.366;2023-12-29T00:36:16;8.70;99.90
33645;DHT22;19986;48.190;16.366;2023-12-29T00:38:43;8.70;99.90
33645;DHT22;19986;48.190;16.366;2023-12-29T00:41:09;8.70;99.90
33645;DHT22;19986;48.190;16.366;2023-12-29T00:43:35;8.70;99.90
33645;DHT22;19986;48.190;16.366;2023-12-29T00:46:02;8.60;99.90
33645;DHT22;19986;48.190;16.366;2023-12-29T00:48:29;8.60;99.90
33645;DHT22;19986;48.190;16.366;2023-12-29T00:50:55;8.50;99.90
33645;DHT22;19986;48.190;16.366;2023-12-29T00:53:21;8.50;99.90
33645;DHT22;19986;48.190;16.366;2023-12-29T00:55:47;8.60;99.90
33645;DHT22;19986;48.190;16.366;2023-12-29T00:58:13;8.60;99.90
33645;DHT22;19986;48.190;16.366;2023-12-29T01:00:39;8.60;99.90
33645;DHT22;19986;48.190;16.366;2023-12-29T01:03:05;8.60;99.90
33645;DHT22;19986;48.190;16.366;2023-12-29T01:05:31;8.60;99.90
33645;DHT22;19986;48.190;16.366;2023-12-29T01:07:57;8.70;99.90
33645;DHT22;19986;48.190;16.366;2023-12-29T01:10:23;8.70;99.90
33645;DHT22;19986;48.190;16.366;2023-12-29T01:12:49;8.80;99.90
33645;DHT22;19986;48.190;16.366;2023-12-29T01:15:15;8.80;99.90
33645;DHT22;19986;48.190;16.366;2023-12-29T01:17:41;8.80;99.90
33645;DHT22;19986;48.190;16.366;2023-12-29T01:20:07;8.90;99.90
33645;DHT22;19986;48.190;16.366;2023-12-29T01:22:33;8.90;99.90
33645;DHT22;19986;48.190;16.366;2023-12-29T01:25:00;8.90;99.90
33645;DHT22;19986;48.190;16.366;2023-12-29T01:27:26;8.80;99.90
33645;DHT22;19986;48.190;16.366;2023-12-29T01:29:53;8.90;99.90
33645;DHT22;19986;48.190;16.366;2023-12-29T01:32:19;8.90;99.90
33645;DHT22;19986;48.190;16.366;2023-12-29T01:34:46;8.90;99.90
33645;DHT22;19986;48.190;16.366;2023-12-29T01:37:12;9.00;99.90
33645;DHT22;19986;48.190;16.366;2023-12-29T01:39:39;8.90;99.90
33645;DHT22;19986;48.190;16.366;2023-12-29T01:42:06;9.00;99.90
33645;DHT22;19986;48.190;16.366;2023-12-29T01:44:33;9.00;99.90
33645;DHT22;19986;48.190;16.366;2023-12-29T01:47:04;9.00;99.90
33645;DHT22;19986;48.190;16.366;2023-12-29T01:49:34;9.00;99.90
33645;DHT22;19986;48.190;16.366;2023-12-29T01:52:01;9.00;99.90
33645;DHT22;19986;48.190;16.366;2023-12-29T01:54:32;9.10;99.90
33645;DHT22;19986;48.190;16.366;2023-12-29T01:57:01;9.10;99.90
33645;DHT22;19986;48.190;16.366;2023-12-29T01:59:29;9.10;99.90
33645;DHT22;19986;48.190;16.366;2023-12-29T02:01:58;9.00;99.90
33645;DHT22;19986;48.190;16.366;2023-12-29T02:04:25;9.10;99.90
33645;DHT22;19986;48.190;16.366;2023-12-29T02:06:52;9.00;99.90
33645;DHT22;19986;48.190;16.366;2023-12-29T02:09:18;9.00;99.90
33645;DHT22;19986;48.190;16.366;2023-12-29T02:11:45;9.00;99.90
33645;DHT22;19986;48.190;16.366;2023-12-29T02:14:11;9.00;99.90
33645;DHT22;19986;48.190;16.366;2023-12-29T02:19:25;9.00;99.90
33645;DHT22;19986;48.190;16.366;2023-12-29T02:21:52;9.00;99.90
33645;DHT22;19986;48.190;16.366;2023-12-29T02:24:18;8.90;99.90
33645;DHT22;19986;48.190;16.366;2023-12-29T02:26:47;8.90;99.90
33645;DHT22;19986;48.190;16.366;2023-12-29T02:29:20;8.80;99.90
33645;DHT22;19986;48.190;16.366;2023-12-29T02:31:51;8.80;99.90
33645;DHT22;19986;48.190;16.366;2023-12-29T02:34:19;8.90;99.90
33645;DHT22;19986;48.190;16.366;2023-12-29T02:36:47;8.90;99.90
33645;DHT22;19986;48.190;16.366;2023-12-29T02:39:14;8.90;99.90
33645;DHT22;19986;48.190;16.366;2023-12-29T02:41:40;8.90;99.90
33645;DHT22;19986;48.190;16.366;2023-12-29T02:44:06;8.80;99.90
33645;DHT22;19986;48.190;16.366;2023-12-29T02:46:32;8.80;99.90
33645;DHT22;19986;48.190;16.366;2023-12-29T02:48:58;8.80;99.90
33645;DHT22;19986;48.190;16.366;2023-12-29T02:51:25;8.90;99.90
33645;DHT22;19986;48.190;16.366;2023-12-29T02:53:52;8.90;99.90
33645;DHT22;19986;48.190;16.366;2023-12-29T02:56:18;8.90;99.90
33645;DHT22;19986;48.190;16.366;2023-12-29T02:58:46;8.90;99.90
33645;DHT22;19986;48.190;16.366;2023-12-29T03:01:14;8.90;99.90
33645;DHT22;19986;48.190;16.366;2023-12-29T03:03:39;8.90;99.90
33645;DHT22;19986;48.190;16.366;2023-12-29T03:06:06;8.90;99.90
33645;DHT22;19986;48.190;16.366;2023-12-29T03:08:32;8.80;99.90
33645;DHT22;19986;48.190;16.366;2023-12-29T03:10:58;8.90;99.90
33645;DHT22;19986;48.190;16.366;2023-12-29T03:13:27;8.90;99.90
33645;DHT22;19986;48.190;16.366;2023-12-29T03:15:53;8.80;99.90
33645;DHT22;19986;48.190;16.366;2023-12-29T03:18:19;8.80;99.90
33645;DHT22;19986;48.190;16.366;2023-12-29T03:20:45;8.80;99.90
33645;DHT22;19986;48.190;16.366;2023-12-29T03:23:12;8.80;99.90
33645;DHT22;19986;48.190;16.366;2023-12-29T03:25:37;8.80;99.90
33645;DHT22;19986;48.190;16.366;2023-12-29T03:28:03;8.80;99.90
33645;DHT22;19986;48.190;16.366;2023-12-29T03:30:29;8.80;99.90
33645;DHT22;19986;48.190;16.366;2023-12-29T03:32:55;8.70;99.90
33645;DHT22;19986;48.190;16.366;2023-12-29T03:35:21;8.80;99.90
33645;DHT22;19986;48.190;16.366;2023-12-29T03:37:47;8.80;99.90
33645;DHT22;19986;48.190;16.366;2023-12-29T03:40:13;8.80;99.90
33645;DHT22;19986;48.190;16.366;2023-12-29T03:42:39;8.70;99.90
33645;DHT22;19986;48.190;16.366;2023-12-29T03:45:09;8.80;99.90
33645;DHT22;19986;48.190;16.366;2023-12-29T03:47:35;8.90;99.90
33645;DHT22;19986;48.190;16.366;2023-12-29T03:50:01;8.90;99.90
33645;DHT22;19986;48.190;16.366;2023-12-29T03:52:27;8.90;99.90
33645;DHT22;19986;48.190;16.366;2023-12-29T03:54:53;8.90;99.90
33645;DHT22;19986;48.190;16.366;2023-12-29T03:57:19;9.00;99.90
33645;DHT22;19986;48.190;16.366;2023-12-29T03:59:45;9.00;99.90
33645;DHT22;19986;48.190;16.366;2023-12-29T04:02:11;9.10;99.90
33645;DHT22;19986;48.190;16.366;2023-12-29T04:04:37;9.20;99.90
33645;DHT22;19986;48.190;16.366;2023-12-29T04:07:04;9.20;99.90
33645;DHT22;19986;48.190;16.366;2023-12-29T04:09:30;9.30;99.90
33645;DHT22;19986;48.190;16.366;2023-12-29T04:11:56;9.40;99.90
33645;DHT22;19986;48.190;16.366;2023-12-29T04:14:22;9.50;99.90
33645;DHT22;19986;48.190;16.366;2023-12-29T04:16:48;9.60;99.90
33645;DHT22;19986;48.190;16.366;2023-12-29T04:19:14;9.70;99.90
33645;DHT22;19986;48.190;16.366;2023-12-29T04:21:40;9.80;99.90
33645;DHT22;19986;48.190;16.366;2023-12-29T04:24:06;9.90;99.90
33645;DHT22;19986;48.190;16.366;2023-12-29T04:26:38;9.90;99.90
33645;DHT22;19986;48.190;16.366;2023-12-29T04:29:04;10.00;99.90
33645;DHT22;19986;48.190;16.366;2023-12-29T04:31:29;10.00;99.90
33645;DHT22;19986;48.190;16.366;2023-12-29T04:33:55;10.10;99.90
33645;DHT22;19986;48.190;16.366;2023-12-29T04:36:21;10.20;99.90
33645;DHT22;19986;48.190;16.366;2023-12-29T04:38:47;10.20;99.90
33645;DHT22;19986;48.190;16.366;2023-12-29T04:41:13;10.30;99.90
33645;DHT22;19986;48.190;16.366;2023-12-29T04:43:40;10.30;99.90
33645;DHT22;19986;48.190;16.366;2023-12-29T04:46:06;10.30;99.90
33645;DHT22;19986;48.190;16.366;2023-12-29T04:48:31;10.30;99.90
33645;DHT22;19986;48.190;16.366;2023-12-29T04:50:57;10.30;99.90
33645;DHT22;19986;48.190;16.366;2023-12-29T04:53:23;10.40;99.90
33645;DHT22;19986;48.190;16.366;2023-12-29T04:55:49;10.50;99.90
33645;DHT22;19986;48.190;16.366;2023-12-29T04:58:16;10.50;99.90
33645;DHT22;19986;48.190;16.366;2023-12-29T05:00:42;10.60;99.90
33645;DHT22;19986;48.190;16.366;2023-12-29T05:03:08;10.60;99.90
33645;DHT22;19986;48.190;16.366;2023-12-29T05:05:34;10.70;99.90
33645;DHT22;19986;48.190;16.366;2023-12-29T05:08:00;10.80;99.90
33645;DHT22;19986;48.190;16.366;2023-12-29T05:10:26;10.80;99.90
33645;DHT22;19986;48.190;16.366;2023-12-29T05:12:51;10.90;99.90
33645;DHT22;19986;48.190;16.366;2023-12-29T05:15:17;11.00;99.90
33645;DHT22;19986;48.190;16.366;2023-12-29T05:17:43;11.10;99.90
33645;DHT22;19986;48.190;16.366;2023-12-29T05:20:09;11.00;99.90
33645;DHT22;19986;48.190;16.366;2023-12-29T05:22:35;11.10;99.90
33645;DHT22;19986;48.190;16.366;2023-12-29T05:25:02;11.10;99.90
33645;DHT22;19986;48.190;16.366;2023-12-29T05:27:28;11.20;99.90
33645;DHT22;19986;48.190;16.366;2023-12-29T05:29:54;11.30;99.90
33645;DHT22;19986;48.190;16.366;2023-12-29T05:32:19;11.40;99.90
33645;DHT22;19986;48.190;16.366;2023-12-29T05:34:45;11.40;99.90
33645;DHT22;19986;48.190;16.366;2023-12-29T05:37:11;11.50;99.90
33645;DHT22;19986;48.190;16.366;2023-12-29T05:39:37;11.50;99.90
33645;DHT22;19986;48.190;16.366;2023-12-29T05:42:05;11.50;99.90
33645;DHT22;19986;48.190;16.366;2023-12-29T05:44:31;11.50;99.90
33645;DHT22;19986;48.190;16.366;2023-12-29T05:46:57;11.40;99.90
33645;DHT22;19986;48.190;16.366;2023-12-29T05:49:26;11.40;99.90
33645;DHT22;19986;48.190;16.366;2023-12-29T05:51:52;11.40;99.90
33645;DHT22;19986;48.190;16.366;2023-12-29T05:54:18;11.40;99.90
33645;DHT22;19986;48.190;16.366;2023-12-29T05:56:44;11.40;99.90
33645;DHT22;19986;48.190;16.366;2023-12-29T05:59:09;11.30;99.90
33645;DHT22;19986;48.190;16.366;2023-12-29T06:01:35;11.30;99.90
33645;DHT22;19986;48.190;16.366;2023-12-29T06:04:02;11.40;99.90
33645;DHT22;19986;48.190;16.366;2023-12-29T06:06:28;11.30;99.90
33645;DHT22;19986;48.190;16.366;2023-12-29T06:08:54;11.40;99.90
33645;DHT22;19986;48.190;16.366;2023-12-29T06:11:20;11.40;99.90
33645;DHT22;19986;48.190;16.366;2023-12-29T06:13:46;11.40;99.90
33645;DHT22;19986;48.190;16.366;2023-12-29T06:16:21;11.30;99.90
33645;DHT22;19986;48.190;16.366;2023-12-29T06:18:47;11.30;99.90
33645;DHT22;19986;48.190;16.366;2023-12-29T06:21:13;11.30;99.90
33645;DHT22;19986;48.190;16.366;2023-12-29T06:23:39;11.30;99.90
33645;DHT22;19986;48.190;16.366;2023-12-29T06:26:05;11.20;99.90
33645;DHT22;19986;48.190;16.366;2023-12-29T06:28:31;11.20;99.90
33645;DHT22;19986;48.190;16.366;2023-12-29T06:30:57;11.20;99.90
33645;DHT22;19986;48.190;16.366;2023-12-29T06:33:23;11.10;99.90
33645;DHT22;19986;48.190;16.366;2023-12-29T06:35:50;11.10;99.90
33645;DHT22;19986;48.190;16.366;2023-12-29T06:38:16;11.00;99.90
33645;DHT22;19986;48.190;16.366;2023-12-29T06:40:42;11.00;99.90
33645;DHT22;19986;48.190;16.366;2023-12-29T06:43:07;11.00;99.90
33645;DHT22;19986;48.190;16.366;2023-12-29T06:45:35;10.90;99.90
33645;DHT22;19986;48.190;16.366;2023-12-29T06:48:01;10.90;99.90
33645;DHT22;19986;48.190;16.366;2023-12-29T06:50:27;10.80;99.90
33645;DHT22;19986;48.190;16.366;2023-12-29T06:52:53;10.70;99.90
33645;DHT22;19986;48.190;16.366;2023-12-29T06:55:19;10.70;99.90
33645;DHT22;19986;48.190;16.366;2023-12-29T06:57:45;10.60;99.90
33645;DHT22;19986;48.190;16.366;2023-12-29T07:00:11;10.60;99.90
33645;DHT22;19986;48.190;16.366;2023-12-29T07:02:40;10.60;99.90
33645;DHT22;19986;48.190;16.366;2023-12-29T07:05:06;10.50;99.90
33645;DHT22;19986;48.190;16.366;2023-12-29T07:07:32;10.40;99.90
33645;DHT22;19986;48.190;16.366;2023-12-29T07:09:58;10.30;99.90
33645;DHT22;19986;48.190;16.366;2023-12-29T07:12:23;10.30;99.90
33645;DHT22;19986;48.190;16.366;2023-12-29T07:14:49;10.20;99.90
33645;DHT22;19986;48.190;16.366;2023-12-29T07:17:15;10.20;99.90
33645;DHT22;19986;48.190;16.366;2023-12-29T07:19:41;10.10;99.90
33645;DHT22;19986;48.190;16.366;2023-12-29T07:22:07;10.10;99.90
33645;DHT22;19986;48.190;16.366;2023-12-29T07:24:34;10.10;99.90
33645;DHT22;19986;48.190;16.366;2023-12-29T07:27:01;10.10;99.90
33645;DHT22;19986;48.190;16.366;2023-12-29T07:29:27;10.00;99.90
33645;DHT22;19986;48.190;16.366;2023-12-29T07:31:53;9.90;99.90
33645;DHT22;19986;48.190;16.366;2023-12-29T07:34:20;9.80;99.90
33645;DHT22;19986;48.190;16.366;2023-12-29T07:36:46;9.80;99.90
33645;DHT22;19986;48.190;16.366;2023-12-29T07:39:12;9.70;99.90
33645;DHT22;19986;48.190;16.366;2023-12-29T07:41:41;9.60;99.90
33645;DHT22;19986;48.190;16.366;2023-12-29T07:44:09;9.50;99.90
33645;DHT22;19986;48.190;16.366;2023-12-29T07:46:36;9.40;99.90
33645;DHT22;19986;48.190;16.366;2023-12-29T07:49:02;9.40;99.90
33645;DHT22;19986;48.190;16.366;2023-12-29T07:51:28;9.40;99.90
33645;DHT22;19986;48.190;16.366;2023-12-29T07:53:54;9.50;99.90
33645;DHT22;19986;48.190;16.366;2023-12-29T07:56:20;9.70;99.90
33645;DHT22;19986;48.190;16.366;2023-12-29T07:58:46;9.80;99.90
33645;DHT22;19986;48.190;16.366;2023-12-29T08:01:12;9.90;99.90
33645;DHT22;19986;48.190;16.366;2023-12-29T08:03:37;9.90;99.90
33645;DHT22;19986;48.190;16.366;2023-12-29T08:06:04;10.00;99.90
33645;DHT22;19986;48.190;16.366;2023-12-29T08:08:30;10.10;99.90
33645;DHT22;19986;48.190;16.366;2023-12-29T08:10:56;10.20;99.90
33645;DHT22;19986;48.190;16.366;2023-12-29T08:13:22;10.30;99.90
33645;DHT22;19986;48.190;16.366;2023-12-29T08:15:48;10.40;99.90
33645;DHT22;19986;48.190;16.366;2023-12-29T08:18:14;10.40;99.90
33645;DHT22;19986;48.190;16.366;2023-12-29T08:20:39;10.50;99.90
33645;DHT22;19986;48.190;16.366;2023-12-29T08:23:05;10.30;99.90
33645;DHT22;19986;48.190;16.366;2023-12-29T08:25:31;10.20;99.90
33645;DHT22;19986;48.190;16.366;2023-12-29T08:27:57;10.10;99.90
33645;DHT22;19986;48.190;16.366;2023-12-29T08:30:23;10.20;99.90
33645;DHT22;19986;48.190;16.366;2023-12-29T08:32:49;10.20;99.90
33645;DHT22;19986;48.190;16.366;2023-12-29T08:35:14;10.30;99.90
33645;DHT22;19986;48.190;16.366;2023-12-29T08:37:41;10.30;99.90
33645;DHT22;19986;48.190;16.366;2023-12-29T08:40:07;10.50;99.90
33645;DHT22;19986;48.190;16.366;2023-12-29T08:42:33;10.60;99.90
33645;DHT22;19986;48.190;16.366;2023-12-29T08:44:59;10.70;99.90
33645;DHT22;19986;48.190;16.366;2023-12-29T08:47:26;10.80;99.90
33645;DHT22;19986;48.190;16.366;2023-12-29T08:49:52;10.80;99.90
33645;DHT22;19986;48.190;16.366;2023-12-29T08:52:20;10.90;99.90
33645;DHT22;19986;48.190;16.366;2023-12-29T08:54:46;10.90;99.90
33645;DHT22;19986;48.190;16.366;2023-12-29T08:57:12;11.00;99.90
33645;DHT22;19986;48.190;16.366;2023-12-29T08:59:38;11.00;99.90
33645;DHT22;19986;48.190;16.366;2023-12-29T09:02:05;11.00;99.90
33645;DHT22;19986;48.190;16.366;2023-12-29T09:04:31;11.10;99.90
33645;DHT22;19986;48.190;16.366;2023-12-29T09:06:57;11.10;99.90
33645;DHT22;19986;48.190;16.366;2023-12-29T09:09:22;11.20;99.90
33645;DHT22;19986;48.190;16.366;2023-12-29T09:11:48;11.20;99.90
33645;DHT22;19986;48.190;16.366;2023-12-29T09:14:14;11.30;99.90
33645;DHT22;19986;48.190;16.366;2023-12-29T09:16:41;11.40;99.90
33645;DHT22;19986;48.190;16.366;2023-12-29T09:19:12;11.50;99.90
33645;DHT22;19986;48.190;16.366;2023-12-29T09:21:39;11.50;99.90
33645;DHT22;19986;48.190;16.366;2023-12-29T09:24:05;11.60;99.90
33645;DHT22;19986;48.190;16.366;2023-12-29T09:26:31;11.70;99.90
33645;DHT22;19986;48.190;16.366;2023-12-29T09:28:58;11.80;99.90
33645;DHT22;19986;48.190;16.366;2023-12-29T09:31:25;11.80;99.90
33645;DHT22;19986;48.190;16.366;2023-12-29T09:33:51;11.90;99.90
33645;DHT22;19986;48.190;16.366;2023-12-29T09:36:17;11.90;99.90
33645;DHT22;19986;48.190;16.366;2023-12-29T09:38:43;12.00;99.90
33645;DHT22;19986;48.190;16.366;2023-12-29T09:41:14;11.90;99.90
33645;DHT22;19986;48.190;16.366;2023-12-29T09:43:40;11.80;99.90
33645;DHT22;19986;48.190;16.366;2023-12-29T09:46:08;11.80;99.90
33645;DHT22;19986;48.190;16.366;2023-12-29T09:48:37;11.90;99.90
33645;DHT22;19986;48.190;16.366;2023-12-29T09:51:08;11.90;99.90
33645;DHT22;19986;48.190;16.366;2023-12-29T09:53:36;12.00;99.90
33645;DHT22;19986;48.190;16.366;2023-12-29T09:56:03;11.90;99.90
33645;DHT22;19986;48.190;16.366;2023-12-29T09:58:30;12.00;99.90
33645;DHT22;19986;48.190;16.366;2023-12-29T10:00:57;12.10;99.90
33645;DHT22;19986;48.190;16.366;2023-12-29T10:03:22;12.10;99.90
33645;DHT22;19986;48.190;16.366;2023-12-29T10:05:51;12.10;99.90
33645;DHT22;19986;48.190;16.366;2023-12-29T10:08:22;12.10;99.90
33645;DHT22;19986;48.190;16.366;2023-12-29T10:10:50;12.10;99.90
33645;DHT22;19986;48.190;16.366;2023-12-29T10:13:18;12.10;99.90
33645;DHT22;19986;48.190;16.366;2023-12-29T10:15:49;12.10;99.90
33645;DHT22;19986;48.190;16.366;2023-12-29T10:18:37;12.10;99.90
33645;DHT22;19986;48.190;16.366;2023-12-29T10:21:37;12.20;99.90
33645;DHT22;19986;48.190;16.366;2023-12-29T10:24:16;12.30;99.90
33645;DHT22;19986;48.190;16.366;2023-12-29T10:26:43;12.30;99.90
33645;DHT22;19986;48.190;16.366;2023-12-29T10:29:11;12.40;99.90
33645;DHT22;19986;48.190;16.366;2023-12-29T10:31:38;12.40;99.90
33645;DHT22;19986;48.190;16.366;2023-12-29T10:34:23;12.40;99.90
33645;DHT22;19986;48.190;16.366;2023-12-29T10:36:56;12.40;99.90
33645;DHT22;19986;48.190;16.366;2023-12-29T10:39:22;12.50;99.90
33645;DHT22;19986;48.190;16.366;2023-12-29T10:41:49;12.70;99.90
33645;DHT22;19986;48.190;16.366;2023-12-29T10:44:16;12.90;99.90
33645;DHT22;19986;48.190;16.366;2023-12-29T10:46:42;13.00;99.90
33645;DHT22;19986;48.190;16.366;2023-12-29T10:49:12;13.10;99.90
33645;DHT22;19986;48.190;16.366;2023-12-29T10:51:39;13.10;99.90
33645;DHT22;19986;48.190;16.366;2023-12-29T10:54:06;13.20;99.90
33645;DHT22;19986;48.190;16.366;2023-12-29T10:56:33;13.40;99.90
33645;DHT22;19986;48.190;16.366;2023-12-29T10:59:03;13.50;99.90
33645;DHT22;19986;48.190;16.366;2023-12-29T11:01:31;13.80;99.90
33645;DHT22;19986;48.190;16.366;2023-12-29T11:04:01;14.10;99.90
33645;DHT22;19986;48.190;16.366;2023-12-29T11:06:29;14.40;99.90
33645;DHT22;19986;48.190;16.366;2023-12-29T11:08:56;14.60;99.90
33645;DHT22;19986;48.190;16.366;2023-12-29T11:11:23;14.80;99.90
33645;DHT22;19986;48.190;16.366;2023-12-29T11:13:49;15.00;99.90
33645;DHT22;19986;48.190;16.366;2023-12-29T11:16:16;15.10;99.90
33645;DHT22;19986;48.190;16.366;2023-12-29T11:18:48;15.30;99.90
33645;DHT22;19986;48.190;16.366;2023-12-29T11:21:16;15.60;99.90
33645;DHT22;19986;48.190;16.366;2023-12-29T11:23:43;15.70;99.90
33645;DHT22;19986;48.190;16.366;2023-12-29T11:26:09;15.80;99.90
33645;DHT22;19986;48.190;16.366;2023-12-29T11:28:35;16.00;99.90
33645;DHT22;19986;48.190;16.366;2023-12-29T11:31:01;16.10;99.90
33645;DHT22;19986;48.190;16.366;2023-12-29T11:33:31;16.20;99.90
33645;DHT22;19986;48.190;16.366;2023-12-29T11:36:10;16.50;99.90
33645;DHT22;19986;48.190;16.366;2023-12-29T11:41:16;16.70;99.90
33645;DHT22;19986;48.190;16.366;2023-12-29T11:43:42;16.80;99.90
33645;DHT22;19986;48.190;16.366;2023-12-29T11:46:34;16.90;99.90
33645;DHT22;19986;48.190;16.366;2023-12-29T11:49:03;17.00;99.90
33645;DHT22;19986;48.190;16.366;2023-12-29T11:51:41;17.00;99.90
33645;DHT22;19986;48.190;16.366;2023-12-29T11:54:09;17.00;99.90
33645;DHT22;19986;48.190;16.366;2023-12-29T11:56:39;17.00;99.90
33645;DHT22;19986;48.190;16.366;2023-12-29T11:59:25;17.00;99.90
33645;DHT22;19986;48.190;16.366;2023-12-29T12:01:54;16.90;99.90
33645;DHT22;19986;48.190;16.366;2023-12-29T12:04:42;16.90;99.90
33645;DHT22;19986;48.190;16.366;2023-12-29T12:09:48;16.90;99.90
33645;DHT22;19986;48.190;16.366;2023-12-29T12:12:40;16.90;99.90
33645;DHT22;19986;48.190;16.366;2023-12-29T12:17:55;16.80;99.90
33645;DHT22;19986;48.190;16.366;2023-12-29T12:20:22;16.70;99.90
33645;DHT22;19986;48.190;16.366;2023-12-29T12:22:56;16.70;99.90
33645;DHT22;19986;48.190;16.366;2023-12-29T12:25:26;16.70;99.90
33645;DHT22;19986;48.190;16.366;2023-12-29T12:27:56;16.70;99.90
33645;DHT22;19986;48.190;16.366;2023-12-29T12:30:22;16.70;99.90
33645;DHT22;19986;48.190;16.366;2023-12-29T12:32:59;16.70;99.90
33645;DHT22;19986;48.190;16.366;2023-12-29T12:35:27;16.70;99.90
33645;DHT22;19986;48.190;16.366;2023-12-29T12:38:11;16.70;99.90
33645;DHT22;19986;48.190;16.366;2023-12-29T12:40:38;16.70;99.90
33645;DHT22;19986;48.190;16.366;2023-12-29T12:43:04;16.80;99.90
33645;DHT22;19986;48.190;16.366;2023-12-29T12:45:34;16.80;99.90
33645;DHT22;19986;48.190;16.366;2023-12-29T12:48:03;16.90;99.90
33645;DHT22;19986;48.190;16.366;2023-12-29T12:50:35;16.80;99.90
33645;DHT22;19986;48.190;16.366;2023-12-29T12:53:01;16.90;99.90
33645;DHT22;19986;48.190;16.366;2023-12-29T12:55:34;16.90;99.90
33645;DHT22;19986;48.190;16.366;2023-12-29T12:58:00;16.80;99.90
33645;DHT22;19986;48.190;16.366;2023-12-29T13:00:29;16.90;99.90
33645;DHT22;19986;48.190;16.366;2023-12-29T13:02:55;16.80;99.90
33645;DHT22;19986;48.190;16.366;2023-12-29T13:05:21;16.80;99.90
33645;DHT22;19986;48.190;16.366;2023-12-29T13:07:48;16.90;99.90
33645;DHT22;19986;48.190;16.366;2023-12-29T13:10:14;16.90;99.90
33645;DHT22;19986;48.190;16.366;2023-12-29T13:12:40;16.90;99.90
33645;DHT22;19986;48.190;16.366;2023-12-29T13:15:07;16.90;99.90
33645;DHT22;19986;48.190;16.366;2023-12-29T13:17:36;16.90;99.90
33645;DHT22;19986;48.190;16.366;2023-12-29T13:20:02;16.90;99.90
33645;DHT22;19986;48.190;16.366;2023-12-29T13:22:30;16.90;99.90
33645;DHT22;19986;48.190;16.366;2023-12-29T13:24:56;16.90;99.90
33645;DHT22;19986;48.190;16.366;2023-12-29T13:27:22;16.90;99.90
33645;DHT22;19986;48.190;16.366;2023-12-29T13:29:48;16.90;99.90
33645;DHT22;19986;48.190;16.366;2023-12-29T13:32:23;17.00;99.90
33645;DHT22;19986;48.190;16.366;2023-12-29T13:35:05;17.10;99.90
33645;DHT22;19986;48.190;16.366;2023-12-29T13:37:44;17.10;99.90
33645;DHT22;19986;48.190;16.366;2023-12-29T13:40:37;17.10;99.90
33645;DHT22;19986;48.190;16.366;2023-12-29T13:43:08;17.10;99.90
33645;DHT22;19986;48.190;16.366;2023-12-29T13:45:35;17.10;99.90
33645;DHT22;19986;48.190;16.366;2023-12-29T13:48:02;17.00;99.90
33645;DHT22;19986;48.190;16.366;2023-12-29T13:50:29;17.00;99.90
33645;DHT22;19986;48.190;16.366;2023-12-29T13:52:55;16.90;99.90
33645;DHT22;19986;48.190;16.366;2023-12-29T13:55:24;16.70;99.90
33645;DHT22;19986;48.190;16.366;2023-12-29T13:57:53;16.50;99.90
33645;DHT22;19986;48.190;16.366;2023-12-29T14:00:24;16.40;99.90
33645;DHT22;19986;48.190;16.366;2023-12-29T14:05:59;16.30;99.90
33645;DHT22;19986;48.190;16.366;2023-12-29T14:08:33;16.30;99.90
33645;DHT22;19986;48.190;16.366;2023-12-29T14:11:09;16.20;99.90
33645;DHT22;19986;48.190;16.366;2023-12-29T14:13:39;16.10;99.90
33645;DHT22;19986;48.190;16.366;2023-12-29T14:16:06;16.00;99.90
33645;DHT22;19986;48.190;16.366;2023-12-29T14:21:31;15.90;99.90
33645;DHT22;19986;48.190;16.366;2023-12-29T14:26:23;15.80;99.90
33645;DHT22;19986;48.190;16.366;2023-12-29T14:29:06;15.70;99.90
33645;DHT22;19986;48.190;16.366;2023-12-29T14:31:42;15.60;99.90
33645;DHT22;19986;48.190;16.366;2023-12-29T14:34:10;15.60;99.90
33645;DHT22;19986;48.190;16.366;2023-12-29T14:36:37;15.50;99.90
33645;DHT22;19986;48.190;16.366;2023-12-29T14:39:04;15.50;99.90
33645;DHT22;19986;48.190;16.366;2023-12-29T14:41:30;15.50;99.90
33645;DHT22;19986;48.190;16.366;2023-12-29T14:43:56;15.50;99.90
33645;DHT22;19986;48.190;16.366;2023-12-29T14:46:23;15.50;99.90
33645;DHT22;19986;48.190;16.366;2023-12-29T14:48:49;15.40;99.90
33645;DHT22;19986;48.190;16.366;2023-12-29T14:51:15;15.40;99.90
33645;DHT22;19986;48.190;16.366;2023-12-29T14:53:45;15.40;99.90
33645;DHT22;19986;48.190;16.366;2023-12-29T14:56:13;15.40;99.90
33645;DHT22;19986;48.190;16.366;2023-12-29T14:58:39;15.40;99.90
33645;DHT22;19986;48.190;16.366;2023-12-29T15:01:06;15.40;99.90
33645;DHT22;19986;48.190;16.366;2023-12-29T15:03:33;15.40;99.90
33645;DHT22;19986;48.190;16.366;2023-12-29T15:05:59;15.40;99.90
33645;DHT22;19986;48.190;16.366;2023-12-29T15:08:25;15.40;99.90
33645;DHT22;19986;48.190;16.366;2023-12-29T15:10:54;15.40;99.90
33645;DHT22;19986;48.190;16.366;2023-12-29T15:13:20;15.40;99.90
33645;DHT22;19986;48.190;16.366;2023-12-29T15:15:46;15.30;99.90
33645;DHT22;19986;48.190;16.366;2023-12-29T15:18:12;15.40;99.90
33645;DHT22;19986;48.190;16.366;2023-12-29T15:20:38;15.40;99.90
33645;DHT22;19986;48.190;16.366;2023-12-29T15:23:04;15.30;99.90
33645;DHT22;19986;48.190;16.366;2023-12-29T15:25:29;15.30;99.90
33645;DHT22;19986;48.190;16.366;2023-12-29T15:27:55;15.30;99.90
33645;DHT22;19986;48.190;16.366;2023-12-29T15:30:22;15.30;99.90
33645;DHT22;19986;48.190;16.366;2023-12-29T15:32:47;15.30;99.90
33645;DHT22;19986;48.190;16.366;2023-12-29T15:35:13;15.30;99.90
33645;DHT22;19986;48.190;16.366;2023-12-29T15:37:39;15.30;99.90
33645;DHT22;19986;48.190;16.366;2023-12-29T15:40:05;15.30;99.90
33645;DHT22;19986;48.190;16.366;2023-12-29T15:42:31;15.30;99.90